Lynradar: storm image Ingen tordenbyger registrert..



Vårt webkamera mer informasjon My webcam


Kamera på Foreneset mer informasjon webcam on foreneset


Lynradar  blitzortung!


Nedbørsradar  rain snow radar


Besøk vår andre værside:

Alternativ webside

iphone versjon

Mobil versjon

Foreneset
verstasjon



Skogbrann Fra: 21-07-2018 23:00 til: 22-07-2018 22:59 varsel for: Skogbrann Level: Gul info button

Nære METAR rapporter

  
ENHD - Haugesund/Karmoy, Norway
Avstand fra stasjon: V 50km
oppdatert: 22-07-2018 06:50
For det meste skyet
For det meste skyet  
 Wind from Ø
Vind: Ø 6 km/h
Temperatur:  14°C
Duggpunkt:  13°C
Fuktighet:  94%
Barometer:  1009 hPa
Skyer:  For det meste skyet
Sikt:  10 km
Skydetaljer:  For det meste skyet 549 m
For det meste skyet 671 m
2018/07/22 04:50 ENHD 220450Z AUTO 08003KT 9999 BKN018/// BKN022/// 14/13 Q1009
ENZV - Stavanger/Sola(A, Norway
Avstand fra stasjon: SSV 58km
oppdatert: 22-07-2018 06:50
For det meste skyet
For det meste skyet  
 Wind from SSØ
Vind: SSØ 4 km/h
Temperatur:  15°C
Duggpunkt:  13°C
Fuktighet:  88%
Barometer:  1010 hPa
Skyer:  For det meste skyet
Sikt:  10 km
Skydetaljer:  Få Skyer 305 m
Delvis Skyet 762 m
For det meste skyet 914 m
2018/07/22 04:50 ENZV 220450Z 15002KT 9999 FEW010 SCT025 BKN030 15/13 Q1010 NOSIG
ENBR - Bergen/Flesland, Norway
Avstand fra stasjon: NNV 118km
oppdatert: 22-07-2018 06:50
Patches of fog, For det meste skyet
Patches of fog, For det meste skyet  
 Wind from V
Vind: V 6 km/h
Temperatur:  14°C
Duggpunkt:  13°C
Fuktighet:  94%
Barometer:  1009 hPa
Summering:  Flekker med tåke
Skyer:  For det meste skyet
Sikt:  10 km
Skydetaljer:  Få Skyer 30 m
Delvis Skyet 91 m
For det meste skyet 914 m
2018/07/22 04:50 ENBR 220450Z 27003KT 9999 2000N BCFG FEW001 SCT003 BKN030 14/13 Q1009 BECMG NSW RMK WIND 1200FT 23005KT
ENCN - Kristiansand/Kje, Norway
Avstand fra stasjon: SØ 169km
oppdatert: 22-07-2018 06:50
Klart
Klart  
 Wind from V
Vind: V 13 km/h
Temperatur:  17°C
Duggpunkt:  10°C
Fuktighet:  64%
Barometer:  1008 hPa
Summering:  Klart
Sikt:  mer enn 10 km
2018/07/22 04:50 ENCN 220450Z 27007KT 230V360 CAVOK 17/10 Q1008
ENQA - Troll-A Heli, Norway
Avstand fra stasjon: NV 198km
oppdatert: 22-07-2018 06:50
For det meste skyet
For det meste skyet  
 Wind from SSV
Vind: SSV 22 km/h
Temperatur:  14°C
Duggpunkt:  10°C
Fuktighet:  77%
Barometer:  1009 hPa
Skyer:  For det meste skyet
Sikt:  16 miles
Skydetaljer:  For det meste skyet 975 m
2018/07/22 04:50 ENQA 220450Z AUTO 21012KT 9999NDV BKN032/// 14/10 Q1009 W13/S3
ENOA - Oseberg, Norway
Avstand fra stasjon: NV 224km
oppdatert: 22-07-2018 06:50
For det meste skyet
For det meste skyet  
 Wind from SSV
Vind: SSV 20 km/h
Temperatur:  14°C
Duggpunkt:  11°C
Fuktighet:  82%
Barometer:  1008 hPa
Skyer:  For det meste skyet
Sikt:  10 km
Skydetaljer:  For det meste skyet 457 m
For det meste skyet 2743 m
2018/07/22 04:50 ENOA 220450Z 21011KT 9999 BKN015 BKN090 14/11 Q1008 W///S3
ENFG - Fagernes/Leirin, Norway
Avstand fra stasjon: NØ 257km
oppdatert: 22-04-2018 10:50
Ikke oppdatert
Klart
Klart  
 Wind from S
Vind: S 13 km/h
Temperatur:  6°C
Wind Chill:  3°C
Duggpunkt:  -3°C
Fuktighet:  53%
Barometer:  1014 hPa
Summering:  Klart
Sikt:  mer enn 10 km
2018/04/22 08:50 ENFG 220850Z 19007KT CAVOK 06/M03 Q1014
ENSL - Sleipner A Platf, Norway
Avstand fra stasjon: VSV 264km
oppdatert: 22-07-2018 06:50
Overskyet
Overskyet  
 Wind from SSV
Vind: SSV 13 km/h
Temperatur:  16°C
Duggpunkt:  13°C
Fuktighet:  83%
Barometer:  1010 hPa
Skyer:  Overskyet
Sikt:  16 miles
Skydetaljer:  Overskyet 1006 m
2018/07/22 04:50 ENSL 220450Z AUTO 20007KT 160V230 9999NDV OVC033/// 16/13 Q1010 W14/S2
ENGC - Gullfax (platfor, Norway
Avstand fra stasjon: NV 294km
oppdatert: 22-07-2018 06:50
For det meste skyet
For det meste skyet  
 Wind from SV
Vind: SV 31 km/h
Temperatur:  14°C
Duggpunkt:  10°C
Fuktighet:  77%
Barometer:  1007 hPa
Skyer:  For det meste skyet
Sikt:  10 km
Skydetaljer:  Få Skyer 457 m
For det meste skyet 762 m
2018/07/22 04:50 ENGC 220450Z 22017KT 9999 FEW015 BKN025 14/10 Q1007 W14/S3
ENGM - Oslo/Gardermoen, Norway
Avstand fra stasjon: ØNØ 294km
oppdatert: 22-07-2018 06:50
For det meste skyet
For det meste skyet  
 Wind from varierer
Vind: varierer 4 km/h
Temperatur:  15°C
Duggpunkt:  14°C
Fuktighet:  94%
Barometer:  1006 hPa
Skyer:  For det meste skyet
Sikt:  10 km
Skydetaljer:  Få Skyer 122 m
Delvis Skyet 183 m
For det meste skyet 366 m
2018/07/22 04:50 ENGM 220450Z VRB02KT 9999 6000NW FEW004 SCT006 BKN012 15/14 Q1006 TEMPO BKN006

Script utviklet av  Saratoga-weather.org Tilrettelagt for malen av  Weerstation Leuven

Du finner vår vær info også på:


UK Metoffice

European Weather Network

WeatherCloud

Weather Underground

Utstyr vi bruker:


Værstsjon
Davis VP2

Værprogram
Weather Display

Davis VP2

Weather Display